sensor_id;sensor_type;location;lat;lon;timestamp;temperature;humidity
59208;DHT22;44977;53.132;6.408;2024-02-21T00:04:47;9.40;99.90
59208;DHT22;44977;53.132;6.408;2024-02-21T00:09:48;9.40;99.90
59208;DHT22;44977;53.132;6.408;2024-02-21T00:14:49;9.40;99.90
59208;DHT22;44977;53.132;6.408;2024-02-21T00:19:50;9.30;99.90
59208;DHT22;44977;53.132;6.408;2024-02-21T00:24:50;9.30;99.90
59208;DHT22;44977;53.132;6.408;2024-02-21T00:29:51;9.30;99.90
59208;DHT22;44977;53.132;6.408;2024-02-21T00:34:52;9.20;99.90
59208;DHT22;44977;53.132;6.408;2024-02-21T00:39:53;9.20;99.90
59208;DHT22;44977;53.132;6.408;2024-02-21T00:44:54;9.20;99.90
59208;DHT22;44977;53.132;6.408;2024-02-21T00:49:55;9.20;99.90
59208;DHT22;44977;53.132;6.408;2024-02-21T00:54:56;9.10;99.90
59208;DHT22;44977;53.132;6.408;2024-02-21T00:59:57;9.10;99.90
59208;DHT22;44977;53.132;6.408;2024-02-21T01:04:58;9.10;99.90
59208;DHT22;44977;53.132;6.408;2024-02-21T01:09:58;9.10;99.90
59208;DHT22;44977;53.132;6.408;2024-02-21T01:14:59;9.10;99.90
59208;DHT22;44977;53.132;6.408;2024-02-21T01:20:00;9.10;99.90
59208;DHT22;44977;53.132;6.408;2024-02-21T01:25:00;9.10;99.90
59208;DHT22;44977;53.132;6.408;2024-02-21T01:30:01;9.10;99.90
59208;DHT22;44977;53.132;6.408;2024-02-21T01:35:02;9.10;99.90
59208;DHT22;44977;53.132;6.408;2024-02-21T01:40:02;9.00;99.90
59208;DHT22;44977;53.132;6.408;2024-02-21T01:45:04;9.00;99.90
59208;DHT22;44977;53.132;6.408;2024-02-21T01:50:05;9.00;99.90
59208;DHT22;44977;53.132;6.408;2024-02-21T01:55:06;9.00;99.90
59208;DHT22;44977;53.132;6.408;2024-02-21T02:00:09;9.00;99.90
59208;DHT22;44977;53.132;6.408;2024-02-21T02:05:10;9.00;99.90
59208;DHT22;44977;53.132;6.408;2024-02-21T02:10:11;9.00;99.90
59208;DHT22;44977;53.132;6.408;2024-02-21T02:15:12;9.00;99.90
59208;DHT22;44977;53.132;6.408;2024-02-21T02:20:13;9.00;99.90
59208;DHT22;44977;53.132;6.408;2024-02-21T02:25:14;9.00;99.90
59208;DHT22;44977;53.132;6.408;2024-02-21T02:30:14;9.00;99.90
59208;DHT22;44977;53.132;6.408;2024-02-21T02:35:15;9.00;99.90
59208;DHT22;44977;53.132;6.408;2024-02-21T02:40:17;9.00;99.90
59208;DHT22;44977;53.132;6.408;2024-02-21T02:45:18;9.00;99.90
59208;DHT22;44977;53.132;6.408;2024-02-21T02:50:19;9.00;99.90
59208;DHT22;44977;53.132;6.408;2024-02-21T02:55:20;8.90;99.90
59208;DHT22;44977;53.132;6.408;2024-02-21T03:00:21;9.00;99.90
59208;DHT22;44977;53.132;6.408;2024-02-21T03:05:22;8.90;99.90
59208;DHT22;44977;53.132;6.408;2024-02-21T03:10:23;8.90;99.90
59208;DHT22;44977;53.132;6.408;2024-02-21T03:15:23;8.90;99.90
59208;DHT22;44977;53.132;6.408;2024-02-21T03:20:24;8.90;99.90
59208;DHT22;44977;53.132;6.408;2024-02-21T03:25:25;8.90;99.90
59208;DHT22;44977;53.132;6.408;2024-02-21T03:30:25;8.90;99.90
59208;DHT22;44977;53.132;6.408;2024-02-21T03:35:26;8.90;99.90
59208;DHT22;44977;53.132;6.408;2024-02-21T03:40:27;8.90;99.90
59208;DHT22;44977;53.132;6.408;2024-02-21T03:45:28;8.90;99.90
59208;DHT22;44977;53.132;6.408;2024-02-21T03:50:28;8.90;99.90
59208;DHT22;44977;53.132;6.408;2024-02-21T03:55:30;8.90;99.90
59208;DHT22;44977;53.132;6.408;2024-02-21T04:00:30;8.90;99.90
59208;DHT22;44977;53.132;6.408;2024-02-21T04:05:31;8.90;99.90
59208;DHT22;44977;53.132;6.408;2024-02-21T04:10:32;8.90;99.90
59208;DHT22;44977;53.132;6.408;2024-02-21T04:15:32;8.80;99.90
59208;DHT22;44977;53.132;6.408;2024-02-21T04:20:34;8.90;99.90
59208;DHT22;44977;53.132;6.408;2024-02-21T04:25:35;8.80;99.90
59208;DHT22;44977;53.132;6.408;2024-02-21T04:30:36;8.90;99.90
59208;DHT22;44977;53.132;6.408;2024-02-21T04:35:37;8.90;99.90
59208;DHT22;44977;53.132;6.408;2024-02-21T04:40:38;8.90;99.90
59208;DHT22;44977;53.132;6.408;2024-02-21T04:45:39;8.90;99.90
59208;DHT22;44977;53.132;6.408;2024-02-21T04:50:40;8.90;99.90
59208;DHT22;44977;53.132;6.408;2024-02-21T04:55:41;8.90;99.90
59208;DHT22;44977;53.132;6.408;2024-02-21T05:00:42;8.90;99.90
59208;DHT22;44977;53.132;6.408;2024-02-21T05:05:43;8.90;99.90
59208;DHT22;44977;53.132;6.408;2024-02-21T05:10:44;8.80;99.90
59208;DHT22;44977;53.132;6.408;2024-02-21T05:15:44;8.80;99.90
59208;DHT22;44977;53.132;6.408;2024-02-21T05:20:45;8.80;99.90
59208;DHT22;44977;53.132;6.408;2024-02-21T05:25:46;8.80;99.90
59208;DHT22;44977;53.132;6.408;2024-02-21T05:30:47;8.80;99.90
59208;DHT22;44977;53.132;6.408;2024-02-21T05:35:48;8.80;99.90
59208;DHT22;44977;53.132;6.408;2024-02-21T05:40:51;8.80;99.90
59208;DHT22;44977;53.132;6.408;2024-02-21T05:45:52;8.80;99.90
59208;DHT22;44977;53.132;6.408;2024-02-21T05:50:52;8.80;99.90
59208;DHT22;44977;53.132;6.408;2024-02-21T05:55:53;8.80;99.90
59208;DHT22;44977;53.132;6.408;2024-02-21T06:00:54;8.80;99.90
59208;DHT22;44977;53.132;6.408;2024-02-21T06:05:54;8.70;99.90
59208;DHT22;44977;53.132;6.408;2024-02-21T06:10:55;8.80;99.90
59208;DHT22;44977;53.132;6.408;2024-02-21T06:15:56;8.80;99.90
59208;DHT22;44977;53.132;6.408;2024-02-21T06:20:56;8.80;99.90
59208;DHT22;44977;53.132;6.408;2024-02-21T06:25:57;8.80;99.90
59208;DHT22;44977;53.132;6.408;2024-02-21T06:30:58;8.70;99.90
59208;DHT22;44977;53.132;6.408;2024-02-21T06:35:58;8.70;99.90
59208;DHT22;44977;53.132;6.408;2024-02-21T06:40:59;8.70;99.90
59208;DHT22;44977;53.132;6.408;2024-02-21T06:46:01;8.70;99.90
59208;DHT22;44977;53.132;6.408;2024-02-21T06:51:02;8.70;99.90
59208;DHT22;44977;53.132;6.408;2024-02-21T06:56:04;8.70;99.90
59208;DHT22;44977;53.132;6.408;2024-02-21T07:01:04;8.70;99.90
59208;DHT22;44977;53.132;6.408;2024-02-21T07:06:05;8.70;99.90
59208;DHT22;44977;53.132;6.408;2024-02-21T07:11:06;8.70;99.90
59208;DHT22;44977;53.132;6.408;2024-02-21T07:16:07;8.80;99.90
59208;DHT22;44977;53.132;6.408;2024-02-21T07:21:08;8.80;99.90
59208;DHT22;44977;53.132;6.408;2024-02-21T07:26:09;8.80;99.90
59208;DHT22;44977;53.132;6.408;2024-02-21T07:31:09;8.80;99.90
59208;DHT22;44977;53.132;6.408;2024-02-21T07:36:11;8.80;99.90
59208;DHT22;44977;53.132;6.408;2024-02-21T07:41:11;8.80;99.90
59208;DHT22;44977;53.132;6.408;2024-02-21T07:46:12;8.80;99.90
59208;DHT22;44977;53.132;6.408;2024-02-21T07:51:13;8.80;99.90
59208;DHT22;44977;53.132;6.408;2024-02-21T07:56:15;8.80;99.90
59208;DHT22;44977;53.132;6.408;2024-02-21T08:01:22;8.80;99.90
59208;DHT22;44977;53.132;6.408;2024-02-21T08:06:22;8.80;99.90
59208;DHT22;44977;53.132;6.408;2024-02-21T08:11:23;8.90;99.90
59208;DHT22;44977;53.132;6.408;2024-02-21T08:16:24;8.90;99.90
59208;DHT22;44977;53.132;6.408;2024-02-21T08:21:24;8.90;99.90
59208;DHT22;44977;53.132;6.408;2024-02-21T08:26:25;8.90;99.90
59208;DHT22;44977;53.132;6.408;2024-02-21T08:31:28;8.90;99.90
59208;DHT22;44977;53.132;6.408;2024-02-21T08:36:35;8.90;99.90
59208;DHT22;44977;53.132;6.408;2024-02-21T08:41:36;8.90;99.90
59208;DHT22;44977;53.132;6.408;2024-02-21T08:46:37;8.90;99.90
59208;DHT22;44977;53.132;6.408;2024-02-21T08:51:40;8.90;99.90
59208;DHT22;44977;53.132;6.408;2024-02-21T08:56:41;8.90;99.90
59208;DHT22;44977;53.132;6.408;2024-02-21T09:01:42;8.90;99.90
59208;DHT22;44977;53.132;6.408;2024-02-21T09:06:43;8.90;99.90
59208;DHT22;44977;53.132;6.408;2024-02-21T09:11:43;8.90;99.90
59208;DHT22;44977;53.132;6.408;2024-02-21T09:16:44;8.90;99.90
59208;DHT22;44977;53.132;6.408;2024-02-21T09:21:45;8.90;99.90
59208;DHT22;44977;53.132;6.408;2024-02-21T09:26:46;8.90;99.90
59208;DHT22;44977;53.132;6.408;2024-02-21T09:31:46;8.90;99.90
59208;DHT22;44977;53.132;6.408;2024-02-21T09:36:48;9.00;99.90
59208;DHT22;44977;53.132;6.408;2024-02-21T09:41:53;9.00;99.90
59208;DHT22;44977;53.132;6.408;2024-02-21T09:47:15;9.00;99.90
59208;DHT22;44977;53.132;6.408;2024-02-21T09:52:17;9.00;99.90
59208;DHT22;44977;53.132;6.408;2024-02-21T09:57:18;9.00;99.90
59208;DHT22;44977;53.132;6.408;2024-02-21T10:02:20;9.00;99.90
59208;DHT22;44977;53.132;6.408;2024-02-21T10:07:21;9.10;99.90
59208;DHT22;44977;53.132;6.408;2024-02-21T10:12:24;9.10;99.90
59208;DHT22;44977;53.132;6.408;2024-02-21T10:17:25;9.10;99.90
59208;DHT22;44977;53.132;6.408;2024-02-21T10:22:26;9.10;99.90
59208;DHT22;44977;53.132;6.408;2024-02-21T10:27:28;9.10;99.90
59208;DHT22;44977;53.132;6.408;2024-02-21T10:32:29;9.10;99.90
59208;DHT22;44977;53.132;6.408;2024-02-21T10:37:31;9.10;99.90
59208;DHT22;44977;53.132;6.408;2024-02-21T10:42:36;9.10;99.90
59208;DHT22;44977;53.132;6.408;2024-02-21T10:47:39;9.10;99.90
59208;DHT22;44977;53.132;6.408;2024-02-21T10:53:08;9.10;99.90
59208;DHT22;44977;53.132;6.408;2024-02-21T10:58:11;9.20;99.90
59208;DHT22;44977;53.132;6.408;2024-02-21T11:03:11;9.30;99.90
59208;DHT22;44977;53.132;6.408;2024-02-21T11:08:14;9.40;99.90
59208;DHT22;44977;53.132;6.408;2024-02-21T11:13:15;9.40;99.90
59208;DHT22;44977;53.132;6.408;2024-02-21T11:18:23;9.50;99.90
59208;DHT22;44977;53.132;6.408;2024-02-21T11:23:26;9.50;99.90
59208;DHT22;44977;53.132;6.408;2024-02-21T11:28:27;9.60;99.90
59208;DHT22;44977;53.132;6.408;2024-02-21T11:33:27;9.50;99.90
59208;DHT22;44977;53.132;6.408;2024-02-21T11:38:28;9.60;99.90
59208;DHT22;44977;53.132;6.408;2024-02-21T11:43:29;9.60;99.90
59208;DHT22;44977;53.132;6.408;2024-02-21T11:48:31;9.50;99.90
59208;DHT22;44977;53.132;6.408;2024-02-21T11:53:32;9.50;99.90
59208;DHT22;44977;53.132;6.408;2024-02-21T11:58:33;9.50;99.90
59208;DHT22;44977;53.132;6.408;2024-02-21T12:03:35;9.50;99.90
59208;DHT22;44977;53.132;6.408;2024-02-21T12:08:45;9.60;99.90
59208;DHT22;44977;53.132;6.408;2024-02-21T12:13:46;9.60;99.90
59208;DHT22;44977;53.132;6.408;2024-02-21T12:18:47;9.60;99.90
59208;DHT22;44977;53.132;6.408;2024-02-21T12:23:48;9.50;99.90
59208;DHT22;44977;53.132;6.408;2024-02-21T12:28:49;9.60;99.90
59208;DHT22;44977;53.132;6.408;2024-02-21T12:33:49;9.60;99.90
59208;DHT22;44977;53.132;6.408;2024-02-21T12:38:52;9.60;99.90
59208;DHT22;44977;53.132;6.408;2024-02-21T12:43:53;9.60;99.90
59208;DHT22;44977;53.132;6.408;2024-02-21T12:48:54;9.70;99.90
59208;DHT22;44977;53.132;6.408;2024-02-21T12:53:55;9.70;99.90
59208;DHT22;44977;53.132;6.408;2024-02-21T12:58:57;9.70;99.90
59208;DHT22;44977;53.132;6.408;2024-02-21T13:03:57;9.70;99.90
59208;DHT22;44977;53.132;6.408;2024-02-21T13:09:01;9.70;99.90
59208;DHT22;44977;53.132;6.408;2024-02-21T13:14:04;9.70;99.90
59208;DHT22;44977;53.132;6.408;2024-02-21T13:19:08;9.70;99.90
59208;DHT22;44977;53.132;6.408;2024-02-21T13:24:08;9.70;99.90
59208;DHT22;44977;53.132;6.408;2024-02-21T13:29:09;9.70;99.90
59208;DHT22;44977;53.132;6.408;2024-02-21T13:34:10;9.80;99.90
59208;DHT22;44977;53.132;6.408;2024-02-21T13:39:10;9.80;99.90
59208;DHT22;44977;53.132;6.408;2024-02-21T13:44:15;9.80;99.90
59208;DHT22;44977;53.132;6.408;2024-02-21T13:49:16;9.80;99.90
59208;DHT22;44977;53.132;6.408;2024-02-21T13:54:17;9.80;99.90
59208;DHT22;44977;53.132;6.408;2024-02-21T13:59:19;9.80;99.90
59208;DHT22;44977;53.132;6.408;2024-02-21T14:04:20;9.80;99.90
59208;DHT22;44977;53.132;6.408;2024-02-21T14:09:21;9.80;99.90
59208;DHT22;44977;53.132;6.408;2024-02-21T14:14:21;9.80;99.90
59208;DHT22;44977;53.132;6.408;2024-02-21T14:19:22;9.80;99.90
59208;DHT22;44977;53.132;6.408;2024-02-21T14:24:23;9.80;99.90
59208;DHT22;44977;53.132;6.408;2024-02-21T14:29:24;9.80;99.90
59208;DHT22;44977;53.132;6.408;2024-02-21T14:34:24;9.70;99.90
59208;DHT22;44977;53.132;6.408;2024-02-21T14:39:26;9.70;99.90
59208;DHT22;44977;53.132;6.408;2024-02-21T14:44:27;9.70;99.90
59208;DHT22;44977;53.132;6.408;2024-02-21T14:49:28;9.70;99.90
59208;DHT22;44977;53.132;6.408;2024-02-21T14:54:29;9.60;99.90
59208;DHT22;44977;53.132;6.408;2024-02-21T14:59:29;9.60;99.90
59208;DHT22;44977;53.132;6.408;2024-02-21T15:04:30;9.50;99.90
59208;DHT22;44977;53.132;6.408;2024-02-21T15:09:31;9.50;99.90
59208;DHT22;44977;53.132;6.408;2024-02-21T15:14:32;9.50;99.90
59208;DHT22;44977;53.132;6.408;2024-02-21T15:19:33;9.50;99.90
59208;DHT22;44977;53.132;6.408;2024-02-21T15:24:34;9.50;99.90
59208;DHT22;44977;53.132;6.408;2024-02-21T15:29:35;9.50;99.90
59208;DHT22;44977;53.132;6.408;2024-02-21T15:34:36;9.50;99.90
59208;DHT22;44977;53.132;6.408;2024-02-21T15:39:37;9.40;99.90
59208;DHT22;44977;53.132;6.408;2024-02-21T15:44:38;9.40;99.90
59208;DHT22;44977;53.132;6.408;2024-02-21T15:49:39;9.40;99.90
59208;DHT22;44977;53.132;6.408;2024-02-21T15:54:40;9.40;99.90
59208;DHT22;44977;53.132;6.408;2024-02-21T15:59:40;9.40;99.90
59208;DHT22;44977;53.132;6.408;2024-02-21T16:04:41;9.30;99.90
59208;DHT22;44977;53.132;6.408;2024-02-21T16:09:42;9.30;99.90
59208;DHT22;44977;53.132;6.408;2024-02-21T16:14:46;9.30;99.90
59208;DHT22;44977;53.132;6.408;2024-02-21T16:19:48;9.30;99.90
59208;DHT22;44977;53.132;6.408;2024-02-21T16:24:49;9.20;99.90
59208;DHT22;44977;53.132;6.408;2024-02-21T16:29:50;9.20;99.90
59208;DHT22;44977;53.132;6.408;2024-02-21T16:34:51;9.20;99.90
59208;DHT22;44977;53.132;6.408;2024-02-21T16:39:52;9.10;99.90
59208;DHT22;44977;53.132;6.408;2024-02-21T16:44:53;9.10;99.90
59208;DHT22;44977;53.132;6.408;2024-02-21T16:49:54;9.10;99.90
59208;DHT22;44977;53.132;6.408;2024-02-21T16:54:54;9.10;99.90
59208;DHT22;44977;53.132;6.408;2024-02-21T16:59:56;9.10;99.90
59208;DHT22;44977;53.132;6.408;2024-02-21T17:04:57;9.00;99.90
59208;DHT22;44977;53.132;6.408;2024-02-21T17:09:59;9.00;99.90
59208;DHT22;44977;53.132;6.408;2024-02-21T17:15:00;9.00;99.90
59208;DHT22;44977;53.132;6.408;2024-02-21T17:20:02;9.00;99.90
59208;DHT22;44977;53.132;6.408;2024-02-21T17:25:04;8.90;99.90
59208;DHT22;44977;53.132;6.408;2024-02-21T17:30:10;9.00;99.90
59208;DHT22;44977;53.132;6.408;2024-02-21T17:35:11;8.90;99.90
59208;DHT22;44977;53.132;6.408;2024-02-21T17:40:12;8.90;99.90
59208;DHT22;44977;53.132;6.408;2024-02-21T17:45:13;8.90;99.90
59208;DHT22;44977;53.132;6.408;2024-02-21T17:50:14;8.80;99.90
59208;DHT22;44977;53.132;6.408;2024-02-21T17:55:15;8.80;99.90
59208;DHT22;44977;53.132;6.408;2024-02-21T18:00:16;8.80;99.90
59208;DHT22;44977;53.132;6.408;2024-02-21T18:05:17;8.80;99.90
59208;DHT22;44977;53.132;6.408;2024-02-21T18:10:18;8.80;99.90
59208;DHT22;44977;53.132;6.408;2024-02-21T18:15:18;8.80;99.90
59208;DHT22;44977;53.132;6.408;2024-02-21T18:20:20;8.70;99.90
59208;DHT22;44977;53.132;6.408;2024-02-21T18:25:21;8.70;99.90
59208;DHT22;44977;53.132;6.408;2024-02-21T18:30:24;8.70;99.90
59208;DHT22;44977;53.132;6.408;2024-02-21T18:35:25;8.70;99.90
59208;DHT22;44977;53.132;6.408;2024-02-21T18:40:26;8.70;99.90
59208;DHT22;44977;53.132;6.408;2024-02-21T18:45:28;8.70;99.90
59208;DHT22;44977;53.132;6.408;2024-02-21T18:50:29;8.70;99.90
59208;DHT22;44977;53.132;6.408;2024-02-21T18:55:29;8.60;99.90
59208;DHT22;44977;53.132;6.408;2024-02-21T19:00:30;8.60;99.90
59208;DHT22;44977;53.132;6.408;2024-02-21T19:05:31;8.60;99.90
59208;DHT22;44977;53.132;6.408;2024-02-21T19:10:31;8.60;99.90
59208;DHT22;44977;53.132;6.408;2024-02-21T19:15:32;8.60;99.90
59208;DHT22;44977;53.132;6.408;2024-02-21T19:20:35;8.60;99.90
59208;DHT22;44977;53.132;6.408;2024-02-21T19:25:36;8.70;99.90
59208;DHT22;44977;53.132;6.408;2024-02-21T19:30:39;8.60;99.90
59208;DHT22;44977;53.132;6.408;2024-02-21T19:35:40;8.60;99.90
59208;DHT22;44977;53.132;6.408;2024-02-21T19:40:41;8.60;99.90
59208;DHT22;44977;53.132;6.408;2024-02-21T19:45:42;8.60;99.90
59208;DHT22;44977;53.132;6.408;2024-02-21T19:50:43;8.60;99.90
59208;DHT22;44977;53.132;6.408;2024-02-21T19:55:44;8.60;99.90
59208;DHT22;44977;53.132;6.408;2024-02-21T20:00:45;8.60;99.90
59208;DHT22;44977;53.132;6.408;2024-02-21T20:05:45;8.60;99.90
59208;DHT22;44977;53.132;6.408;2024-02-21T20:10:46;8.50;99.90
59208;DHT22;44977;53.132;6.408;2024-02-21T20:15:48;8.60;99.90
59208;DHT22;44977;53.132;6.408;2024-02-21T20:20:49;8.60;99.90
59208;DHT22;44977;53.132;6.408;2024-02-21T20:25:50;8.60;99.90
59208;DHT22;44977;53.132;6.408;2024-02-21T20:30:55;8.60;99.90
59208;DHT22;44977;53.132;6.408;2024-02-21T20:35:55;8.60;99.90
59208;DHT22;44977;53.132;6.408;2024-02-21T20:40:56;8.60;99.90
59208;DHT22;44977;53.132;6.408;2024-02-21T20:45:57;8.60;99.90
59208;DHT22;44977;53.132;6.408;2024-02-21T20:50:58;8.60;99.90
59208;DHT22;44977;53.132;6.408;2024-02-21T20:55:59;8.60;99.90
59208;DHT22;44977;53.132;6.408;2024-02-21T21:00:59;8.60;99.90
59208;DHT22;44977;53.132;6.408;2024-02-21T21:06:01;8.60;99.90
59208;DHT22;44977;53.132;6.408;2024-02-21T21:11:01;8.60;99.90
59208;DHT22;44977;53.132;6.408;2024-02-21T21:16:02;8.60;99.90
59208;DHT22;44977;53.132;6.408;2024-02-21T21:21:03;8.60;99.90
59208;DHT22;44977;53.132;6.408;2024-02-21T21:26:04;8.60;99.90
59208;DHT22;44977;53.132;6.408;2024-02-21T21:31:04;8.60;99.90
59208;DHT22;44977;53.132;6.408;2024-02-21T21:36:05;8.60;99.90
59208;DHT22;44977;53.132;6.408;2024-02-21T21:41:06;8.60;99.90
59208;DHT22;44977;53.132;6.408;2024-02-21T21:46:12;8.60;99.90
59208;DHT22;44977;53.132;6.408;2024-02-21T21:51:14;8.70;99.90
59208;DHT22;44977;53.132;6.408;2024-02-21T21:56:15;8.60;99.90
59208;DHT22;44977;53.132;6.408;2024-02-21T22:01:15;8.70;99.90
59208;DHT22;44977;53.132;6.408;2024-02-21T22:06:16;8.70;99.90
59208;DHT22;44977;53.132;6.408;2024-02-21T22:11:17;8.70;99.90
59208;DHT22;44977;53.132;6.408;2024-02-21T22:16:18;8.70;99.90
59208;DHT22;44977;53.132;6.408;2024-02-21T22:21:18;8.70;99.90
59208;DHT22;44977;53.132;6.408;2024-02-21T22:26:19;8.60;99.90
59208;DHT22;44977;53.132;6.408;2024-02-21T22:31:20;8.70;99.90
59208;DHT22;44977;53.132;6.408;2024-02-21T22:36:20;8.80;99.90
59208;DHT22;44977;53.132;6.408;2024-02-21T22:41:21;8.80;99.90
59208;DHT22;44977;53.132;6.408;2024-02-21T22:46:23;8.80;99.90
59208;DHT22;44977;53.132;6.408;2024-02-21T22:51:24;8.80;99.90
59208;DHT22;44977;53.132;6.408;2024-02-21T22:56:25;8.80;99.90
59208;DHT22;44977;53.132;6.408;2024-02-21T23:01:26;8.80;99.90
59208;DHT22;44977;53.132;6.408;2024-02-21T23:06:27;8.80;99.90
59208;DHT22;44977;53.132;6.408;2024-02-21T23:11:28;8.80;99.90
59208;DHT22;44977;53.132;6.408;2024-02-21T23:16:28;8.80;99.90
59208;DHT22;44977;53.132;6.408;2024-02-21T23:21:29;8.80;99.90
59208;DHT22;44977;53.132;6.408;2024-02-21T23:26:30;8.80;99.90
59208;DHT22;44977;53.132;6.408;2024-02-21T23:31:31;8.80;99.90
59208;DHT22;44977;53.132;6.408;2024-02-21T23:36:32;8.80;99.90
59208;DHT22;44977;53.132;6.408;2024-02-21T23:41:33;8.90;99.90
59208;DHT22;44977;53.132;6.408;2024-02-21T23:46:33;8.90;99.90
59208;DHT22;44977;53.132;6.408;2024-02-21T23:51:34;8.90;99.90
59208;DHT22;44977;53.132;6.408;2024-02-21T23:56:35;8.90;99.90
